createdAt,value
2022-10-11T00:00:45.346Z,9.73
2022-10-11T00:03:12.293Z,12.35
2022-10-11T00:05:39.328Z,8.38
2022-10-11T00:08:06.284Z,7.57
2022-10-11T00:10:33.814Z,8.88
2022-10-11T00:13:00.664Z,8.07
2022-10-11T00:15:27.435Z,4.85
2022-10-11T00:17:54.276Z,10.05
2022-10-11T00:20:21.115Z,8.25
2022-10-11T00:22:49.338Z,12.93
2022-10-11T00:25:16.533Z,12.93
2022-10-11T00:27:43.377Z,6.10
2022-10-11T00:30:10.584Z,4.32
2022-10-11T00:32:38.243Z,6.45
2022-10-11T00:35:06.461Z,12.73
2022-10-11T00:37:34.031Z,14.90
2022-10-11T00:40:00.989Z,5.32
2022-10-11T00:42:27.822Z,12.80
2022-10-11T00:45:26.422Z,5.72
2022-10-11T00:47:54.822Z,12.45
2022-10-11T00:50:22.481Z,9.95
2022-10-11T00:52:57.414Z,8.27
2022-10-11T00:55:24.449Z,14.90
2022-10-11T00:57:52.562Z,10.52
2022-10-11T01:00:19.520Z,17.83
2022-10-11T01:02:46.508Z,10.43
2022-10-11T01:05:30.665Z,14.23
2022-10-11T01:07:59.037Z,7.88
2022-10-11T01:10:26.265Z,10.25
2022-10-11T01:13:04.131Z,8.55
2022-10-11T01:15:54.034Z,11.38
2022-10-11T01:18:35.676Z,8.25
2022-10-11T01:21:45.776Z,9.82
2022-10-11T01:24:35.884Z,5.55
2022-10-11T01:27:38.513Z,14.82
2022-10-11T01:30:20.413Z,9.48
2022-10-11T01:32:49.298Z,9.57
2022-10-11T01:35:24.922Z,18.02
2022-10-11T01:38:11.321Z,7.47
2022-10-11T01:40:45.750Z,7.28
2022-10-11T01:43:13.186Z,10.60
2022-10-11T01:45:41.473Z,8.40
2022-10-11T01:48:10.043Z,9.38
2022-10-11T01:50:36.853Z,11.27
2022-10-11T01:53:16.483Z,7.03
2022-10-11T01:56:18.554Z,7.30
2022-10-11T01:59:03.714Z,21.63
2022-10-11T02:02:08.827Z,9.63
2022-10-11T02:04:49.143Z,8.85
2022-10-11T02:07:15.928Z,6.75
2022-10-11T02:09:48.394Z,15.68
2022-10-11T02:12:18.780Z,10.52
2022-10-11T02:14:47.016Z,8.75
2022-10-11T02:17:18.457Z,10.90
2022-10-11T02:19:47.628Z,13.88
2022-10-11T02:22:27.128Z,15.90
2022-10-11T02:24:55.641Z,10.27
2022-10-11T02:27:24.403Z,10.90
2022-10-11T02:29:51.414Z,10.20
2022-10-11T02:32:18.234Z,9.32
2022-10-11T02:34:55.865Z,15.68
2022-10-11T02:37:50.437Z,18.00
2022-10-11T02:40:29.496Z,15.52
2022-10-11T02:43:17.628Z,13.43
2022-10-11T02:45:47.545Z,6.07
2022-10-11T02:48:14.395Z,6.65
2022-10-11T02:50:41.564Z,13.73
2022-10-11T02:53:08.538Z,14.70
2022-10-11T02:55:35.366Z,8.45
2022-10-11T02:58:02.423Z,9.65
2022-10-11T03:00:29.393Z,13.75
2022-10-11T03:02:56.230Z,8.25
2022-10-11T03:05:23.061Z,8.18
2022-10-11T03:07:49.847Z,8.48
2022-10-11T03:10:16.684Z,10.93
2022-10-11T03:12:43.493Z,12.45
2022-10-11T03:15:10.651Z,7.57
2022-10-11T03:17:37.712Z,16.13
2022-10-11T03:20:05.782Z,11.20
2022-10-11T03:22:32.564Z,5.10
2022-10-11T03:25:03.571Z,7.97
2022-10-11T03:27:32.262Z,10.70
2022-10-11T03:29:59.135Z,11.75
2022-10-11T03:32:34.576Z,5.65
2022-10-11T03:35:01.458Z,7.03
2022-10-11T03:37:28.274Z,3.67
2022-10-11T03:39:55.069Z,8.32
2022-10-11T03:42:21.917Z,8.13
2022-10-11T03:44:51.677Z,13.20
2022-10-11T03:47:18.494Z,6.28
2022-10-11T03:49:45.304Z,6.45
2022-10-11T03:52:12.106Z,11.45
2022-10-11T03:54:38.962Z,20.13
2022-10-11T03:57:56.722Z,6.70
2022-10-11T04:00:23.570Z,7.65
2022-10-11T04:02:50.430Z,11.20
2022-10-11T04:05:17.292Z,9.70
2022-10-11T04:07:44.166Z,7.65
2022-10-11T04:10:11.040Z,6.88
2022-10-11T04:12:38.963Z,3.88
2022-10-11T04:15:06.516Z,14.05
2022-10-11T04:17:33.399Z,8.68
2022-10-11T04:20:00.256Z,13.38
2022-10-11T04:22:27.156Z,14.05
2022-10-11T04:24:54.189Z,11.65
2022-10-11T04:27:21.166Z,8.77
2022-10-11T04:29:48.044Z,6.18
2022-10-11T04:32:14.919Z,4.97
2022-10-11T04:34:41.865Z,7.45
2022-10-11T04:37:08.731Z,10.07
2022-10-11T04:39:35.597Z,7.03
2022-10-11T04:42:02.526Z,6.30
2022-10-11T04:44:29.398Z,18.55
2022-10-11T04:46:56.360Z,14.50
2022-10-11T04:49:23.547Z,14.90
2022-10-11T04:51:50.669Z,8.32
2022-10-11T04:54:17.818Z,10.95
2022-10-11T04:56:44.696Z,9.68
2022-10-11T04:59:11.806Z,6.55
2022-10-11T05:01:38.836Z,6.95
2022-10-11T05:04:05.895Z,9.68
2022-10-11T05:06:32.848Z,11.07
2022-10-11T05:09:00.692Z,7.53
2022-10-11T05:11:27.574Z,6.40
2022-10-11T05:13:56.573Z,15.57
2022-10-11T05:16:23.738Z,9.10
2022-10-11T05:18:50.697Z,12.05
2022-10-11T05:21:25.161Z,9.77
2022-10-11T05:23:52.779Z,10.05
2022-10-11T05:26:20.493Z,10.30
2022-10-11T05:28:48.065Z,9.63
2022-10-11T05:31:15.485Z,9.57
2022-10-11T05:33:42.462Z,11.40
2022-10-11T05:36:09.816Z,15.82
2022-10-11T05:38:36.937Z,5.32
2022-10-11T05:41:04.096Z,11.65
2022-10-11T05:43:30.976Z,11.23
2022-10-11T05:45:57.978Z,11.77
2022-10-11T05:48:26.722Z,8.98
2022-10-11T05:50:58.388Z,9.30
2022-10-11T05:53:25.190Z,12.73
2022-10-11T05:55:52.051Z,11.02
2022-10-11T05:58:19.521Z,7.45
2022-10-11T06:00:46.403Z,8.80
2022-10-11T06:03:13.666Z,11.48
2022-10-11T06:05:40.559Z,15.63
2022-10-11T06:08:08.686Z,9.15
2022-10-11T06:10:36.031Z,10.23
2022-10-11T06:13:02.939Z,11.30
2022-10-11T06:15:29.980Z,9.65
2022-10-11T06:17:57.929Z,14.25
2022-10-11T06:20:25.274Z,12.60
2022-10-11T06:22:52.171Z,9.50
2022-10-11T06:25:19.057Z,18.65
2022-10-11T06:27:45.981Z,11.75
2022-10-11T06:30:13.092Z,10.30
2022-10-11T06:32:39.997Z,11.55
2022-10-11T06:35:07.288Z,7.80
2022-10-11T06:37:34.204Z,12.70
2022-10-11T06:40:01.130Z,8.57
2022-10-11T06:42:28.033Z,13.52
2022-10-11T06:44:54.905Z,10.55
2022-10-11T06:47:21.777Z,14.60
2022-10-11T06:49:48.755Z,8.20
2022-10-11T06:52:15.705Z,11.45
2022-10-11T06:54:44.889Z,12.10
2022-10-11T06:57:12.300Z,11.52
2022-10-11T06:59:39.310Z,7.65
2022-10-11T07:02:06.252Z,16.55
2022-10-11T07:04:34.046Z,11.85
2022-10-11T07:07:01.148Z,7.38
2022-10-11T07:09:28.057Z,12.68
2022-10-11T07:11:54.967Z,8.88
2022-10-11T07:14:21.883Z,10.05
2022-10-11T07:21:04.294Z,16.30
2022-10-11T07:23:31.195Z,16.00
2022-10-11T07:25:58.028Z,14.57
2022-10-11T07:28:25.212Z,24.33
2022-10-11T07:30:52.169Z,12.85
2022-10-11T07:33:19.076Z,15.00
2022-10-11T07:35:48.428Z,11.10
2022-10-11T07:38:15.830Z,14.40
2022-10-11T07:40:46.276Z,8.23
2022-10-11T07:43:13.470Z,14.85
2022-10-11T07:45:41.110Z,15.32
2022-10-11T07:48:08.002Z,10.02
2022-10-11T07:50:35.029Z,10.82
2022-10-11T07:53:01.941Z,14.82
2022-10-11T07:55:30.316Z,10.18
2022-10-11T07:57:57.720Z,9.57
2022-10-11T08:00:24.621Z,17.10
2022-10-11T08:02:51.525Z,15.13
2022-10-11T08:05:18.517Z,9.32
2022-10-11T08:07:45.409Z,9.18
2022-10-11T08:10:12.241Z,10.82
2022-10-11T08:12:39.077Z,6.22
2022-10-11T08:15:06.493Z,13.40
2022-10-11T08:17:33.345Z,16.08
2022-10-11T08:20:00.329Z,14.18
2022-10-11T08:22:27.312Z,10.77
2022-10-11T08:24:54.304Z,14.13
2022-10-11T08:27:21.176Z,11.55
2022-10-11T08:29:48.206Z,11.30
2022-10-11T08:32:15.071Z,7.40
2022-10-11T08:34:41.944Z,12.07
2022-10-11T08:37:08.839Z,10.95
2022-10-11T08:39:35.742Z,19.65
2022-10-11T08:42:05.491Z,13.32
2022-10-11T08:44:52.152Z,14.95
2022-10-11T08:47:25.847Z,12.63
2022-10-11T08:49:52.824Z,18.25
2022-10-11T08:52:22.460Z,13.15
2022-10-11T08:54:59.863Z,12.73
2022-10-11T08:57:27.822Z,15.63
2022-10-11T08:59:57.311Z,14.48
2022-10-11T09:03:08.160Z,9.32
2022-10-11T09:05:36.693Z,13.15
2022-10-11T09:08:28.505Z,10.07
2022-10-11T09:11:13.709Z,9.57
2022-10-11T09:13:51.933Z,10.75
2022-10-11T09:16:57.650Z,12.45
2022-10-11T09:19:33.468Z,11.02
2022-10-11T09:22:17.044Z,15.30
2022-10-11T09:25:17.960Z,16.77
2022-10-11T09:28:02.378Z,9.40
2022-10-11T09:30:29.951Z,8.35
2022-10-11T09:33:17.298Z,15.27
2022-10-11T09:35:51.772Z,19.40
2022-10-11T09:38:37.339Z,11.48
2022-10-11T09:41:28.931Z,13.43
2022-10-11T09:43:55.810Z,18.83
2022-10-11T09:46:29.407Z,13.90
2022-10-11T09:48:56.417Z,14.02
2022-10-11T09:51:25.894Z,15.70
2022-10-11T09:54:02.574Z,21.05
2022-10-11T09:56:30.460Z,23.77
2022-10-11T09:59:08.505Z,19.85
2022-10-11T10:01:35.794Z,13.43
2022-10-11T10:04:11.150Z,19.20
2022-10-11T10:06:38.355Z,18.35
2022-10-11T10:09:27.978Z,16.88
2022-10-11T10:11:55.477Z,21.15
2022-10-11T10:14:30.115Z,15.18
2022-10-11T10:17:08.664Z,17.15
2022-10-11T10:19:44.736Z,17.98
2022-10-11T10:22:20.650Z,16.13
2022-10-11T10:24:48.119Z,19.95
2022-10-11T10:27:16.959Z,18.77
2022-10-11T10:29:44.863Z,16.17
2022-10-11T10:32:20.976Z,15.65
2022-10-11T10:34:56.845Z,16.92
2022-10-11T10:37:54.847Z,22.05
2022-10-11T10:40:50.322Z,19.33
2022-10-11T10:43:19.016Z,21.67
2022-10-11T10:46:04.095Z,22.85
2022-10-11T10:49:23.606Z,30.83
2022-10-11T10:51:54.354Z,28.58
2022-10-11T10:54:40.064Z,25.80
2022-10-11T10:57:29.224Z,19.38
2022-10-11T11:00:12.807Z,21.13
2022-10-11T11:03:00.844Z,17.73
2022-10-11T11:05:34.083Z,28.98
2022-10-11T11:08:23.005Z,22.13
2022-10-11T11:11:05.539Z,23.63
2022-10-11T11:13:50.598Z,27.27
2022-10-11T11:16:33.251Z,19.67
2022-10-11T11:19:18.029Z,22.63
2022-10-11T11:21:54.141Z,19.92
2022-10-11T11:24:23.827Z,19.50
2022-10-11T11:27:25.746Z,12.25
2022-10-11T11:29:58.411Z,28.75
2022-10-11T11:32:34.352Z,30.33
2022-10-11T11:35:04.452Z,23.92
2022-10-11T11:37:41.497Z,26.40
2022-10-11T11:40:19.557Z,18.63
2022-10-11T11:42:58.239Z,18.83
2022-10-11T11:46:01.862Z,22.90
2022-10-11T11:48:28.680Z,20.02
2022-10-11T11:51:33.338Z,25.33
2022-10-11T11:54:28.267Z,20.23
2022-10-11T11:57:04.482Z,18.17
2022-10-11T11:59:39.292Z,19.40
2022-10-11T12:02:22.887Z,26.35
2022-10-11T12:04:49.863Z,24.65
2022-10-11T12:07:18.900Z,28.10
2022-10-11T12:09:50.621Z,19.25
2022-10-11T12:12:35.449Z,26.13
2022-10-11T12:15:03.589Z,28.85
2022-10-11T12:17:30.650Z,27.27
2022-10-11T12:20:17.163Z,29.45
2022-10-11T12:22:50.053Z,26.50
2022-10-11T12:25:23.159Z,25.83
2022-10-11T12:27:51.431Z,35.63
2022-10-11T12:30:44.745Z,30.33
2022-10-11T12:33:23.141Z,28.90
2022-10-11T12:35:53.001Z,30.23
2022-10-11T12:38:19.953Z,32.63
2022-10-11T12:40:47.380Z,32.60
2022-10-11T12:43:14.279Z,29.45
2022-10-11T12:45:47.957Z,28.27
2022-10-11T12:48:44.233Z,27.05
2022-10-11T12:51:32.770Z,33.75
2022-10-11T12:54:37.566Z,30.25
2022-10-11T12:57:46.116Z,33.00
2022-10-11T13:00:21.871Z,29.17
2022-10-11T13:02:48.971Z,22.27
2022-10-11T13:05:23.325Z,37.75
2022-10-11T13:07:51.002Z,27.15
2022-10-11T13:10:22.755Z,31.00
2022-10-11T13:12:49.624Z,29.38
2022-10-11T13:15:18.663Z,31.15
2022-10-11T13:17:45.501Z,29.45
2022-10-11T13:20:26.306Z,30.38
2022-10-11T13:22:53.889Z,39.83
2022-10-11T13:25:25.076Z,27.08
2022-10-11T13:27:52.982Z,30.40
2022-10-11T13:30:24.330Z,25.80
2022-10-11T13:32:51.924Z,34.17
2022-10-11T13:35:39.094Z,34.42
2022-10-11T13:38:08.569Z,29.73
2022-10-11T13:40:35.526Z,24.25
2022-10-11T13:43:02.398Z,25.25
2022-10-11T13:45:32.040Z,26.10
2022-10-11T13:47:58.960Z,30.38
2022-10-11T13:50:34.512Z,33.08
2022-10-11T13:53:03.483Z,25.85
2022-10-11T13:55:36.846Z,31.27
2022-10-11T14:00:58.230Z,26.58
2022-10-11T14:03:34.291Z,26.58
2022-10-11T14:06:01.272Z,33.83
2022-10-11T14:08:47.252Z,42.97
2022-10-11T14:11:14.502Z,38.15
2022-10-11T14:13:47.479Z,25.10
2022-10-11T14:16:20.593Z,27.42
2022-10-11T14:19:09.919Z,27.02
2022-10-11T14:21:46.020Z,31.48
2022-10-11T14:24:13.239Z,24.10
2022-10-11T14:26:44.962Z,26.42
2022-10-11T14:29:22.265Z,27.10
2022-10-11T14:31:49.626Z,31.73
2022-10-11T14:34:19.126Z,25.42
2022-10-11T14:36:46.225Z,31.35
2022-10-11T14:39:18.273Z,26.33
2022-10-11T14:41:45.585Z,32.28
2022-10-11T14:44:12.751Z,25.15
2022-10-11T14:46:40.964Z,31.48
2022-10-11T14:49:31.298Z,23.58
2022-10-11T14:51:58.494Z,20.23
2022-10-11T14:54:27.152Z,21.95
2022-10-11T14:56:55.075Z,30.52
2022-10-11T14:59:23.437Z,24.73
2022-10-11T15:01:54.332Z,21.67
2022-10-11T15:04:21.528Z,17.00
2022-10-11T15:06:48.742Z,25.48
2022-10-11T15:09:17.048Z,26.60
2022-10-11T15:11:44.039Z,21.70
2022-10-11T15:14:10.869Z,27.42
2022-10-11T15:16:37.756Z,24.25
2022-10-11T15:19:04.594Z,20.48
2022-10-11T15:21:31.506Z,24.25
2022-10-11T15:23:58.366Z,25.33
2022-10-11T15:26:28.167Z,25.98
2022-10-11T15:28:55.842Z,29.73
2022-10-11T15:31:22.856Z,26.67
2022-10-11T15:33:49.848Z,23.10
2022-10-11T15:36:20.587Z,25.50
2022-10-11T15:38:47.713Z,19.33
2022-10-11T15:41:15.847Z,19.27
2022-10-11T15:43:46.501Z,23.83
2022-10-11T15:46:18.383Z,21.27
2022-10-11T15:48:45.578Z,19.15
2022-10-11T15:51:12.646Z,17.48
2022-10-11T15:53:39.495Z,28.42
2022-10-11T15:56:08.593Z,23.17
2022-10-11T15:58:37.754Z,26.63
2022-10-11T16:01:06.803Z,25.98
2022-10-11T16:03:34.063Z,24.67
2022-10-11T16:06:04.991Z,26.50
2022-10-11T16:08:33.205Z,26.30
2022-10-11T16:11:00.144Z,18.85
2022-10-11T16:13:26.986Z,27.13
2022-10-11T16:15:53.900Z,24.27
2022-10-11T16:18:21.179Z,23.95
2022-10-11T16:20:51.085Z,28.50
2022-10-11T16:23:18.241Z,26.23
2022-10-11T16:25:45.143Z,23.55
2022-10-11T16:28:12.001Z,25.30
2022-10-11T16:30:40.027Z,32.20
2022-10-11T16:33:06.858Z,23.92
2022-10-11T16:35:33.899Z,26.38
2022-10-11T16:38:01.161Z,23.10
2022-10-11T16:40:29.875Z,21.58
2022-10-11T16:42:57.222Z,24.50
2022-10-11T16:45:24.196Z,20.48
2022-10-11T16:47:51.103Z,21.13
2022-10-11T16:50:18.253Z,22.52
2022-10-11T16:52:45.132Z,22.20
2022-10-11T16:55:12.100Z,21.50
2022-10-11T16:57:38.966Z,20.60
2022-10-11T17:00:07.833Z,15.90
2022-10-11T17:02:34.794Z,20.95
2022-10-11T17:05:01.791Z,24.50
2022-10-11T17:07:28.735Z,18.40
2022-10-11T17:09:55.618Z,21.35
2022-10-11T17:12:23.656Z,23.23
2022-10-11T17:14:50.739Z,22.20
2022-10-11T17:17:17.650Z,22.42
2022-10-11T17:19:45.585Z,19.92
2022-10-11T17:22:13.394Z,19.92
2022-10-11T17:24:40.272Z,25.70
2022-10-11T17:27:07.202Z,28.23
2022-10-11T17:29:34.256Z,35.05
2022-10-11T17:32:01.104Z,21.83
2022-10-11T17:34:27.910Z,27.02
2022-10-11T17:36:54.663Z,25.27
2022-10-11T17:39:22.407Z,15.40
2022-10-11T17:41:49.404Z,20.88
2022-10-11T17:44:18.981Z,17.35
2022-10-11T17:46:46.412Z,33.22
2022-10-11T17:49:13.441Z,27.45
2022-10-11T17:51:40.740Z,24.40
2022-10-11T17:54:12.300Z,18.73
2022-10-11T17:56:43.004Z,20.27
2022-10-11T17:59:15.741Z,19.10
2022-10-11T18:01:42.632Z,19.45
2022-10-11T18:04:16.379Z,34.58
2022-10-11T18:06:45.066Z,27.15
2022-10-11T18:09:12.486Z,25.60
2022-10-11T18:11:39.262Z,24.48
2022-10-11T18:14:06.140Z,20.77
2022-10-11T18:16:33.056Z,19.65
2022-10-11T18:19:00.800Z,18.50
2022-10-11T18:21:33.460Z,27.45
2022-10-11T18:26:30.619Z,29.20
2022-10-11T18:28:57.772Z,33.65
2022-10-11T18:31:26.762Z,25.73
2022-10-11T18:33:53.923Z,22.55
2022-10-11T18:36:22.583Z,23.17
2022-10-11T18:38:53.086Z,22.95
2022-10-11T18:42:23.526Z,27.23
2022-10-11T18:44:52.487Z,30.52
2022-10-11T18:47:19.802Z,24.05
2022-10-11T18:49:49.096Z,35.67
2022-10-11T18:52:29.081Z,22.65
2022-10-11T18:54:58.615Z,20.27
2022-10-11T18:57:25.487Z,17.98
2022-10-11T18:59:56.060Z,21.60
2022-10-11T19:02:22.938Z,32.35
2022-10-11T19:04:52.829Z,21.02
2022-10-11T19:07:20.152Z,22.00
2022-10-11T19:09:47.175Z,19.30
2022-10-11T19:12:14.274Z,24.35
2022-10-11T19:14:41.394Z,25.38
2022-10-11T19:17:08.251Z,19.00
2022-10-11T19:19:35.088Z,19.17
2022-10-11T19:22:03.368Z,19.77
2022-10-11T19:24:30.497Z,24.75
2022-10-11T19:27:02.221Z,23.95
2022-10-11T19:29:30.453Z,22.35
2022-10-11T19:31:58.923Z,28.33
2022-10-11T19:34:27.523Z,26.75
2022-10-11T19:36:55.260Z,26.02
2022-10-11T19:39:22.410Z,28.80
2022-10-11T19:41:49.459Z,29.33
2022-10-11T19:44:16.447Z,31.48
2022-10-11T19:46:51.481Z,21.70
2022-10-11T19:50:20.822Z,17.45
2022-10-11T19:52:47.598Z,27.27
2022-10-11T19:55:15.122Z,23.02
2022-10-11T19:57:41.869Z,20.05
2022-10-11T20:00:09.419Z,18.42
2022-10-11T20:02:36.186Z,20.00
2022-10-11T20:05:03.140Z,24.38
2022-10-11T20:07:30.158Z,17.55
2022-10-11T20:09:57.327Z,21.02
2022-10-11T20:12:24.271Z,24.40
2022-10-11T20:14:51.155Z,24.90
2022-10-11T20:17:18.900Z,22.05
2022-10-11T20:19:46.018Z,23.38
2022-10-11T20:22:12.905Z,16.40
2022-10-11T20:24:39.897Z,20.40
2022-10-11T20:27:07.457Z,21.30
2022-10-11T20:29:35.281Z,27.17
2022-10-11T20:32:02.456Z,25.25
2022-10-11T20:34:29.417Z,18.67
2022-10-11T20:36:56.342Z,20.60
2022-10-11T20:39:23.867Z,22.27
2022-10-11T20:41:50.736Z,14.35
2022-10-11T20:44:17.930Z,20.63
2022-10-11T20:46:44.837Z,19.30
2022-10-11T20:49:11.883Z,19.77
2022-10-11T20:51:39.609Z,23.13
2022-10-11T20:54:06.546Z,28.73
2022-10-11T20:56:33.873Z,30.40
2022-10-11T20:59:00.864Z,34.15
2022-10-11T21:01:37.068Z,28.48
2022-10-11T21:04:05.017Z,18.33
2022-10-11T21:06:37.961Z,21.20
2022-10-11T21:09:05.075Z,22.85
2022-10-11T21:11:33.476Z,19.77
2022-10-11T21:14:02.135Z,17.27
2022-10-11T21:16:29.310Z,24.92
2022-10-11T21:18:57.423Z,22.10
2022-10-11T21:21:24.509Z,23.98
2022-10-11T21:24:01.172Z,32.47
2022-10-11T21:26:28.502Z,26.55
2022-10-11T21:28:55.535Z,29.30
2022-10-11T21:31:22.878Z,21.15
2022-10-11T21:33:49.896Z,25.48
2022-10-11T21:36:21.082Z,13.73
2022-10-11T21:38:48.251Z,17.17
2022-10-11T21:41:22.509Z,18.60
2022-10-11T21:43:49.523Z,23.35
2022-10-11T21:46:20.066Z,25.13
2022-10-11T21:48:47.035Z,16.92
2022-10-11T21:51:32.191Z,31.98
2022-10-11T21:54:00.413Z,25.75
2022-10-11T21:56:27.910Z,18.08
2022-10-11T21:58:54.770Z,26.25
2022-10-11T22:01:22.064Z,24.08
2022-10-11T22:03:48.934Z,17.77
2022-10-11T22:06:16.052Z,15.15
2022-10-11T22:08:42.928Z,16.58
2022-10-11T22:11:09.858Z,24.73
2022-10-11T22:13:36.921Z,16.45
2022-10-11T22:16:07.836Z,18.17
2022-10-11T22:18:34.846Z,20.83
2022-10-11T22:21:03.644Z,19.05
2022-10-11T22:23:30.719Z,17.10
2022-10-11T22:26:12.127Z,23.05
2022-10-11T22:28:39.352Z,33.17
2022-10-11T22:31:06.705Z,20.23
2022-10-11T22:33:33.658Z,23.63
2022-10-11T22:36:02.332Z,26.52
2022-10-11T22:38:29.158Z,33.20
2022-10-11T22:40:58.940Z,35.05
2022-10-11T22:43:25.870Z,27.38
2022-10-11T22:45:52.757Z,25.98
2022-10-11T22:48:19.636Z,29.20
2022-10-11T22:50:46.682Z,28.85
2022-10-11T22:53:16.012Z,23.63
2022-10-11T22:55:43.463Z,27.10
2022-10-11T22:58:10.367Z,26.50
2022-10-11T23:00:37.434Z,22.02
2022-10-11T23:03:04.427Z,20.05
2022-10-11T23:05:31.363Z,28.63
2022-10-11T23:07:58.459Z,34.45
2022-10-11T23:10:25.352Z,22.80
2022-10-11T23:12:52.224Z,24.92
2022-10-11T23:15:19.170Z,28.70
2022-10-11T23:17:46.023Z,30.60
2022-10-11T23:20:12.858Z,21.10
2022-10-11T23:22:39.719Z,24.45
2022-10-11T23:25:07.260Z,20.92
2022-10-11T23:27:34.107Z,25.98
2022-10-11T23:30:00.986Z,20.27
2022-10-11T23:32:27.814Z,24.50
2022-10-11T23:34:54.723Z,23.80
2022-10-11T23:37:23.476Z,25.25
2022-10-11T23:39:50.412Z,22.58
2022-10-11T23:42:17.605Z,17.23
2022-10-11T23:44:44.495Z,21.88
2022-10-11T23:47:11.350Z,20.77
2022-10-11T23:49:38.220Z,19.52
2022-10-11T23:52:05.458Z,18.73
2022-10-11T23:54:32.381Z,22.38
